Terminal Aerodrome Forecast
Issued by NWS

Home | Current Version | Previous Version | Text Only | Print | Product List | Glossary On
Versions: 1 2 3 4 5 6 7 8 9 10 11 12 13 14 15 16 17 18
000
FTUS41 KBTV 291731
TAFSLK
TAF
KSLK 291731Z 2918/3018 34007KT 3SM -SN BKN020 OVC035
      TEMPO 2918/2922 2SM -SN
     FM300000 34004KT P6SM OVC020
     FM300800 VRB03KT P6SM OVC025
     FM301400 03005KT P6SM BKN025=

USA.gov is the U.S. government's official web portal to all federal, state and local government web resources and services.